Time;durP1;ratioP1;P1;durP2;ratioP2;P2;SDS_P1;SDS_P2;PMS_P1;PMS_P2;Temp;Humidity;BMP_temperature;BMP_pressure;BME280_temperature;BME280_humidity;BME280_pressure;Samples;Min_cycle;Max_cycle;Signal;HPM_P1;HPM_P2
2022/12/17 13:05:52;;;;;;;;;;;21.90;79.10;;;;;;5087437;28;19943;-52
2022/12/17 13:08:18;;;;;;;;;;;21.90;79.10;;;;;;5093493;28;19908;-51
2022/12/17 13:10:43;;;;;;;;;;;21.90;79.10;;;;;;5077050;28;20366;-49
2022/12/17 13:13:21;;;;;;;;;;;21.90;79.10;;;;;;5076647;28;19988;-53
2022/12/17 13:15:58;;;;;;;;;;;21.90;79.00;;;;;;5094554;28;19909;-53
2022/12/17 13:18:29;;;;;;;;;;;21.90;79.10;;;;;;5095518;28;19957;-53
2022/12/17 13:20:58;;;;;;;;;;;22.00;79.00;;;;;;5094426;28;20358;-51
2022/12/17 13:23:28;;;;;;;;;;;22.00;79.10;;;;;;5094858;28;19908;-50
2022/12/17 13:26:12;;;;;;;;;;;22.00;79.10;;;;;;5094487;28;20382;-51
2022/12/17 13:28:38;;;;;;;;;;;22.00;78.90;;;;;;5094475;28;20343;-47
2022/12/17 13:31:18;;;;;;;;;;;22.00;78.80;;;;;;5094565;28;19904;-51
2022/12/17 13:33:53;;;;;;;;;;;22.00;78.80;;;;;;5095004;28;19995;-50
2022/12/17 13:36:27;;;;;;;;;;;22.00;78.90;;;;;;5094850;28;19908;-50
2022/12/17 13:38:55;;;;;;;;;;;22.10;79.00;;;;;;5085043;28;20375;-52
2022/12/17 13:41:26;;;;;;;;;;;22.20;79.00;;;;;;5103434;28;20277;-50
2022/12/17 13:43:53;;;;;;;;;;;22.20;78.70;;;;;;5092917;28;20281;-49
2022/12/17 13:46:21;;;;;;;;;;;22.20;78.70;;;;;;5094063;28;20002;-50
2022/12/17 13:48:57;;;;;;;;;;;22.20;78.70;;;;;;5092429;28;19908;-52
2022/12/17 13:51:24;;;;;;;;;;;22.10;79.00;;;;;;5092159;28;19912;-50
2022/12/17 13:53:50;;;;;;;;;;;22.10;79.00;;;;;;5091949;28;20337;-50
2022/12/17 13:56:20;;;;;;;;;;;22.00;79.10;;;;;;5092570;28;20200;-51
2022/12/17 13:58:49;;;;;;;;;;;22.00;79.30;;;;;;5092207;28;19944;-51
2022/12/17 14:01:14;;;;;;;;;;;21.90;79.30;;;;;;5092043;28;19931;-50
2022/12/17 14:03:47;;;;;;;;;;;21.90;79.40;;;;;;5093859;28;19908;-50
2022/12/17 14:06:13;;;;;;;;;;;21.90;79.40;;;;;;5093820;28;19971;-50
2022/12/17 14:08:38;;;;;;;;;;;21.90;79.40;;;;;;5093019;28;19908;-51
2022/12/17 14:13:49;;;;;;;;;;;21.90;79.60;;;;;;5078975;28;20306;-51
2022/12/17 14:16:15;;;;;;;;;;;21.80;79.60;;;;;;5093803;28;20313;-50
2022/12/17 14:18:43;;;;;;;;;;;21.80;79.70;;;;;;5093991;28;19909;-52
2022/12/17 14:21:09;;;;;;;;;;;21.80;79.60;;;;;;5094073;28;20386;-51
2022/12/17 14:23:35;;;;;;;;;;;21.80;79.70;;;;;;5094119;28;19915;-51
2022/12/17 14:26:00;;;;;;;;;;;21.80;79.60;;;;;;5093697;28;20355;-49
2022/12/17 14:28:33;;;;;;;;;;;21.80;79.70;;;;;;5093440;28;20006;-51
2022/12/17 14:31:13;;;;;;;;;;;21.90;79.60;;;;;;5093573;28;19912;-51
2022/12/17 14:33:40;;;;;;;;;;;21.80;79.60;;;;;;5093961;28;20359;-49
2022/12/17 14:36:15;;;;;;;;;;;21.80;79.80;;;;;;5093615;28;19908;-51
2022/12/17 14:38:51;;;;;;;;;;;21.80;79.70;;;;;;5075331;28;19960;-52
2022/12/17 14:44:02;;;;;;;;;;;21.90;79.50;;;;;;5073579;28;19979;-51
2022/12/17 14:46:28;;;;;;;;;;;22.00;79.50;;;;;;5073079;28;19932;-51
2022/12/17 14:49:02;;;;;;;;;;;21.90;79.40;;;;;;5073079;28;19916;-48
2022/12/17 14:51:27;;;;;;;;;;;21.90;79.50;;;;;;5070130;28;19912;-50
2022/12/17 14:54:03;;;;;;;;;;;21.90;79.50;;;;;;5071981;28;20006;-52
2022/12/17 14:56:29;;;;;;;;;;;21.90;79.70;;;;;;5053081;28;19909;-49
2022/12/17 14:58:54;;;;;;;;;;;21.90;79.60;;;;;;5071658;28;19999;-49
2022/12/17 15:01:20;;;;;;;;;;;21.90;79.80;;;;;;5073056;28;20283;-51
2022/12/17 15:03:45;;;;;;;;;;;21.90;79.70;;;;;;5073048;28;19909;-49
2022/12/17 15:06:14;;;;;;;;;;;21.90;79.70;;;;;;5069537;28;19952;-52
2022/12/17 15:08:45;;;;;;;;;;;22.00;79.60;;;;;;5064067;28;20355;-49
2022/12/17 15:11:11;;;;;;;;;;;22.00;79.50;;;;;;5066837;28;19978;-50
2022/12/17 15:13:36;;;;;;;;;;;22.00;79.50;;;;;;5088245;28;19919;-51
2022/12/17 15:16:02;;;;;;;;;;;22.00;79.00;;;;;;5083275;28;19912;-51
2022/12/17 15:18:27;;;;;;;;;;;22.00;79.40;;;;;;5088118;28;19921;-50
2022/12/17 15:20:53;;;;;;;;;;;22.00;79.30;;;;;;5091110;28;19908;-49
2022/12/17 15:23:20;;;;;;;;;;;22.00;79.30;;;;;;5085963;28;19958;-51
2022/12/17 15:25:46;;;;;;;;;;;22.00;79.40;;;;;;5074537;28;19920;-47
2022/12/17 15:28:11;;;;;;;;;;;22.00;79.40;;;;;;5073315;28;19912;-48
2022/12/17 15:30:38;;;;;;;;;;;22.00;79.30;;;;;;5076758;28;19920;-52
2022/12/17 15:33:08;;;;;;;;;;;22.00;79.30;;;;;;5083508;28;19978;-52
2022/12/17 15:35:35;;;;;;;;;;;22.00;79.40;;;;;;5088098;28;20362;-53
2022/12/17 15:38:00;;;;;;;;;;;22.00;79.50;;;;;;5096632;28;19920;-50
2022/12/17 15:40:26;;;;;;;;;;;22.00;79.50;;;;;;5111340;28;19912;-51
2022/12/17 15:43:24;;;;;;;;;;;21.90;79.50;;;;;;5101038;28;19954;-47
2022/12/17 15:45:44;;;;;;;;;;;21.90;79.40;;;;;;5090053;28;19920;-49
2022/12/17 15:48:11;;;;;;;;;;;21.90;79.60;;;;;;5088706;28;20351;-50
2022/12/17 15:50:37;;;;;;;;;;;21.80;79.60;;;;;;5100632;28;20007;-51
2022/12/17 15:53:02;;;;;;;;;;;21.80;79.80;;;;;;5117400;28;19957;-49
2022/12/17 15:55:28;;;;;;;;;;;21.80;79.70;;;;;;5098872;28;19923;-51
2022/12/17 15:57:53;;;;;;;;;;;21.90;79.70;;;;;;5102079;28;19912;-51
2022/12/17 16:00:19;;;;;;;;;;;21.90;79.60;;;;;;5098326;28;19913;-50
2022/12/17 16:02:45;;;;;;;;;;;21.80;79.60;;;;;;5090316;28;19912;-51
2022/12/17 16:05:11;;;;;;;;;;;21.80;79.70;;;;;;5115664;28;19920;-51
2022/12/17 16:07:37;;;;;;;;;;;21.80;79.70;;;;;;5112749;28;20285;-48
2022/12/17 16:10:03;;;;;;;;;;;21.80;79.70;;;;;;5096434;28;19912;-49
2022/12/17 16:12:28;;;;;;;;;;;21.80;79.90;;;;;;5068471;28;19922;-53
2022/12/17 16:14:54;;;;;;;;;;;21.80;79.90;;;;;;5091715;28;19911;-50
2022/12/17 16:17:19;;;;;;;;;;;21.80;79.90;;;;;;5111052;28;19912;-49
2022/12/17 16:19:45;;;;;;;;;;;21.80;80.00;;;;;;5096650;28;19979;-53
2022/12/17 16:22:10;;;;;;;;;;;21.70;79.90;;;;;;5095393;28;20010;-53
2022/12/17 16:24:36;;;;;;;;;;;21.70;80.10;;;;;;5085969;28;19942;-52
2022/12/17 16:27:01;;;;;;;;;;;21.70;80.00;;;;;;5104105;28;19922;-52
2022/12/17 16:29:27;;;;;;;;;;;21.70;79.90;;;;;;5079021;28;19915;-52
2022/12/17 16:31:52;;;;;;;;;;;21.80;79.80;;;;;;5097492;28;19915;-53
2022/12/17 16:34:18;;;;;;;;;;;21.90;79.80;;;;;;5098165;28;19919;-50
2022/12/17 16:36:43;;;;;;;;;;;21.90;79.70;;;;;;5084970;28;20398;-51
2022/12/17 16:39:13;;;;;;;;;;;21.90;79.50;;;;;;5116323;28;19956;-51
2022/12/17 16:41:38;;;;;;;;;;;22.00;79.40;;;;;;5098531;28;19958;-50
2022/12/17 16:44:04;;;;;;;;;;;22.00;79.30;;;;;;5089979;28;19947;-53
2022/12/17 16:46:31;;;;;;;;;;;22.00;79.30;;;;;;5110928;28;19909;-52
2022/12/17 16:48:57;;;;;;;;;;;22.00;79.30;;;;;;5086389;28;19912;-49
2022/12/17 16:51:24;;;;;;;;;;;22.00;79.10;;;;;;5104159;28;20004;-50
2022/12/17 16:53:49;;;;;;;;;;;22.00;79.30;;;;;;5098886;28;19912;-52
2022/12/17 16:56:18;;;;;;;;;;;21.90;79.40;;;;;;5089442;28;19915;-50
2022/12/17 16:58:44;;;;;;;;;;;21.90;79.60;;;;;;5090228;28;19916;-49
2022/12/17 17:01:10;;;;;;;;;;;21.70;79.80;;;;;;5094660;28;19970;-53
2022/12/17 17:03:41;;;;;;;;;;;21.60;80.20;;;;;;5086506;28;19918;-54
2022/12/17 17:06:07;;;;;;;;;;;21.50;80.40;;;;;;5090069;28;20031;-52
2022/12/17 17:08:34;;;;;;;;;;;21.50;80.60;;;;;;5093186;28;19908;-54
2022/12/17 17:11:07;;;;;;;;;;;21.40;80.80;;;;;;5078037;28;19912;-50
2022/12/17 17:13:33;;;;;;;;;;;21.40;80.90;;;;;;5084749;28;19936;-50
2022/12/17 17:15:58;;;;;;;;;;;21.40;80.90;;;;;;5088420;28;19920;-50
2022/12/17 17:18:24;;;;;;;;;;;21.40;80.90;;;;;;5092859;28;19940;-50
2022/12/17 17:20:49;;;;;;;;;;;21.50;80.80;;;;;;5103651;28;20002;-49
2022/12/17 17:23:15;;;;;;;;;;;21.60;80.70;;;;;;5113160;28;20270;-48
2022/12/17 17:25:41;;;;;;;;;;;21.70;80.50;;;;;;5085843;28;20362;-50
2022/12/17 17:28:06;;;;;;;;;;;21.80;80.30;;;;;;5092943;28;19908;-51
2022/12/17 17:30:32;;;;;;;;;;;21.90;80.00;;;;;;5108870;28;19912;-51
2022/12/17 17:32:57;;;;;;;;;;;22.10;79.80;;;;;;5108490;28;19918;-52
2022/12/17 17:35:23;;;;;;;;;;;22.10;79.40;;;;;;5102019;28;19927;-53
2022/12/17 17:37:48;;;;;;;;;;;22.30;79.20;;;;;;5105860;27;19927;-54
2022/12/17 17:40:13;;;;;;;;;;;22.40;78.90;;;;;;5114835;28;19912;-51
2022/12/17 17:42:39;;;;;;;;;;;22.50;78.70;;;;;;5114564;28;19911;-53
2022/12/17 17:45:07;;;;;;;;;;;22.60;78.50;;;;;;5098777;28;20339;-53
2022/12/17 17:47:33;;;;;;;;;;;22.60;78.30;;;;;;5089712;28;19913;-51
2022/12/17 17:49:58;;;;;;;;;;;22.60;78.30;;;;;;5077331;28;19965;-50
2022/12/17 17:52:24;;;;;;;;;;;22.60;78.20;;;;;;5093013;28;19958;-50
2022/12/17 17:54:49;;;;;;;;;;;22.60;78.20;;;;;;5094488;28;19914;-53
2022/12/17 17:57:15;;;;;;;;;;;22.60;78.20;;;;;;5084110;28;20309;-49
2022/12/17 17:59:40;;;;;;;;;;;22.60;78.30;;;;;;5091751;28;20338;-54
2022/12/17 18:02:08;;;;;;;;;;;22.60;78.30;;;;;;5102029;28;19962;-52
2022/12/17 18:04:33;;;;;;;;;;;22.50;78.30;;;;;;5094254;28;20370;-48
2022/12/17 18:06:59;;;;;;;;;;;22.40;78.50;;;;;;5096242;28;19908;-51
2022/12/17 18:09:24;;;;;;;;;;;22.40;78.60;;;;;;5076307;28;20324;-51
2022/12/17 18:11:50;;;;;;;;;;;22.40;78.60;;;;;;5093175;28;19919;-51
2022/12/17 18:14:16;;;;;;;;;;;22.40;78.60;;;;;;5096662;28;19919;-51
2022/12/17 18:16:43;;;;;;;;;;;22.30;78.70;;;;;;5097906;28;19912;-49
2022/12/17 18:19:10;;;;;;;;;;;22.30;78.70;;;;;;5082883;28;20281;-50
2022/12/17 18:21:37;;;;;;;;;;;22.20;78.90;;;;;;5104211;28;19990;-51
2022/12/17 18:24:08;;;;;;;;;;;22.20;78.90;;;;;;5114294;28;20069;-52
2022/12/17 18:26:36;;;;;;;;;;;22.20;79.20;;;;;;5097360;28;20390;-52
2022/12/17 18:29:06;;;;;;;;;;;22.20;79.00;;;;;;5096439;28;19923;-49
2022/12/17 18:31:32;;;;;;;;;;;22.30;79.10;;;;;;5107820;28;20351;-48
2022/12/17 18:33:58;;;;;;;;;;;22.20;78.80;;;;;;5093656;28;20128;-53
2022/12/17 18:36:25;;;;;;;;;;;22.20;78.80;;;;;;5093446;28;19908;-52
2022/12/17 18:39:05;;;;;;;;;;;22.30;78.80;;;;;;5094297;28;19920;-50
2022/12/17 18:44:15;;;;;;;;;;;22.20;78.70;;;;;;5073529;28;19958;-53
2022/12/17 18:46:41;;;;;;;;;;;22.30;78.80;;;;;;5073780;28;19909;-49
2022/12/17 18:49:08;;;;;;;;;;;22.30;78.60;;;;;;5073613;28;19916;-53
2022/12/17 18:51:34;;;;;;;;;;;22.30;78.60;;;;;;5074826;28;19916;-51
2022/12/17 18:54:00;;;;;;;;;;;22.30;78.50;;;;;;5095603;28;19909;-52
2022/12/17 18:56:26;;;;;;;;;;;22.30;78.80;;;;;;5097473;28;19931;-51
2022/12/17 18:58:52;;;;;;;;;;;22.20;78.60;;;;;;5099312;28;19912;-52
2022/12/17 19:01:19;;;;;;;;;;;22.10;78.70;;;;;;5107911;28;20379;-51
2022/12/17 19:03:44;;;;;;;;;;;21.80;73.30;;;;;;5110091;28;19916;-54
2022/12/17 19:06:10;;;;;;;;;;;21.80;77.00;;;;;;5097077;28;19928;-54
2022/12/17 19:08:35;;;;;;;;;;;21.70;78.30;;;;;;5103705;28;19912;-50
2022/12/17 19:11:05;;;;;;;;;;;21.60;78.80;;;;;;5086918;28;19989;-52
2022/12/17 19:13:32;;;;;;;;;;;21.60;79.70;;;;;;5105894;28;19912;-51
2022/12/17 19:16:03;;;;;;;;;;;21.60;79.40;;;;;;5098919;28;20394;-49
2022/12/17 19:18:28;;;;;;;;;;;21.60;79.50;;;;;;5095725;28;19957;-53
2022/12/17 19:20:57;;;;;;;;;;;21.60;79.50;;;;;;5114787;28;19915;-52
2022/12/17 19:23:22;;;;;;;;;;;21.60;79.70;;;;;;5113192;28;19911;-51
2022/12/17 19:25:48;;;;;;;;;;;21.60;79.70;;;;;;5101512;28;20007;-49
2022/12/17 19:28:13;;;;;;;;;;;21.60;79.70;;;;;;5085216;28;20434;-53
2022/12/17 19:30:39;;;;;;;;;;;21.60;79.70;;;;;;5097270;28;19908;-51
2022/12/17 19:33:07;;;;;;;;;;;21.60;79.60;;;;;;5103413;28;19998;-50
2022/12/17 19:35:36;;;;;;;;;;;21.70;79.60;;;;;;5111165;28;20454;-50
2022/12/17 19:38:01;;;;;;;;;;;21.70;79.40;;;;;;5111441;28;19969;-51
2022/12/17 19:40:27;;;;;;;;;;;21.80;79.30;;;;;;5103498;28;19915;-50
2022/12/17 19:42:55;;;;;;;;;;;21.80;79.20;;;;;;5094164;28;20374;-49
2022/12/17 19:45:21;;;;;;;;;;;21.80;78.80;;;;;;5091419;28;20422;-52
2022/12/17 19:47:46;;;;;;;;;;;21.90;79.20;;;;;;5117681;28;19951;-50
2022/12/17 19:50:12;;;;;;;;;;;21.90;78.90;;;;;;5100787;28;19912;-49
2022/12/17 19:52:37;;;;;;;;;;;21.90;79.00;;;;;;5086456;28;19916;-50
2022/12/17 19:55:03;;;;;;;;;;;21.80;79.00;;;;;;5117336;28;19957;-53
2022/12/17 19:57:29;;;;;;;;;;;21.90;79.10;;;;;;5091677;28;19912;-52
2022/12/17 19:59:54;;;;;;;;;;;21.80;79.10;;;;;;5095936;28;19908;-49
2022/12/17 20:02:20;;;;;;;;;;;21.90;79.10;;;;;;5076733;28;19935;-52
2022/12/17 20:04:45;;;;;;;;;;;21.90;79.00;;;;;;5106343;28;19974;-53
2022/12/17 20:07:11;;;;;;;;;;;21.90;79.00;;;;;;5099616;28;20315;-50
2022/12/17 20:09:36;;;;;;;;;;;21.90;78.90;;;;;;5096506;28;19963;-52
2022/12/17 20:12:02;;;;;;;;;;;21.90;79.00;;;;;;5078482;28;19908;-49
2022/12/17 20:14:28;;;;;;;;;;;21.90;79.00;;;;;;5096897;28;19908;-51
2022/12/17 20:16:55;;;;;;;;;;;21.80;79.20;;;;;;5101783;28;19908;-53
2022/12/17 20:19:23;;;;;;;;;;;21.80;79.30;;;;;;5091000;28;19918;-49
2022/12/17 20:21:48;;;;;;;;;;;21.80;79.40;;;;;;5078565;28;20321;-50
2022/12/17 20:24:15;;;;;;;;;;;21.80;79.30;;;;;;5096410;28;20007;-51
2022/12/17 20:26:40;;;;;;;;;;;21.90;79.30;;;;;;5096357;28;19961;-52
2022/12/17 20:29:06;;;;;;;;;;;21.90;79.30;;;;;;5096314;28;20269;-51
2022/12/17 20:31:32;;;;;;;;;;;21.90;79.30;;;;;;5091012;28;19915;-53
2022/12/17 20:34:02;;;;;;;;;;;21.90;79.30;;;;;;5093741;28;19916;-49
2022/12/17 20:36:28;;;;;;;;;;;21.90;79.30;;;;;;5096365;28;19948;-53
2022/12/17 20:38:53;;;;;;;;;;;21.90;79.30;;;;;;5115755;28;20003;-50
2022/12/17 20:41:20;;;;;;;;;;;21.90;79.30;;;;;;5087193;28;19916;-49
2022/12/17 20:43:46;;;;;;;;;;;21.90;79.20;;;;;;5112316;28;20254;-52
2022/12/17 20:46:12;;;;;;;;;;;22.00;79.40;;;;;;5116340;28;19941;-50
2022/12/17 20:48:38;;;;;;;;;;;22.00;79.30;;;;;;5101090;28;19916;-49
2022/12/17 20:51:08;;;;;;;;;;;21.90;79.10;;;;;;5094235;28;19940;-52
2022/12/17 20:53:34;;;;;;;;;;;21.90;79.30;;;;;;5093724;28;19911;-52
2022/12/17 20:56:01;;;;;;;;;;;22.00;79.20;;;;;;5091543;28;19912;-50
2022/12/17 20:58:26;;;;;;;;;;;22.00;79.20;;;;;;5095121;28;19912;-49
2022/12/17 21:00:52;;;;;;;;;;;22.10;79.20;;;;;;5093012;28;20405;-49
2022/12/17 21:03:17;;;;;;;;;;;22.10;79.00;;;;;;5090559;28;19912;-51
2022/12/17 21:05:43;;;;;;;;;;;22.00;78.20;;;;;;5091613;28;19920;-53
2022/12/17 21:08:08;;;;;;;;;;;22.00;78.80;;;;;;5092705;28;19923;-48
2022/12/17 21:10:34;;;;;;;;;;;22.00;78.90;;;;;;5076820;28;19916;-50
2022/12/17 21:15:49;;;;;;;;;;;22.00;79.00;;;;;;5095523;28;19957;-52
2022/12/17 21:18:14;;;;;;;;;;;22.00;79.10;;;;;;5075560;28;20368;-49
2022/12/17 21:20:40;;;;;;;;;;;22.00;79.20;;;;;;5095422;28;20005;-52
2022/12/17 21:23:05;;;;;;;;;;;21.90;79.30;;;;;;5095203;28;19931;-51
2022/12/17 21:25:31;;;;;;;;;;;21.80;79.50;;;;;;5095083;28;19923;-50
2022/12/17 21:27:56;;;;;;;;;;;21.80;79.90;;;;;;5094031;28;19912;-51
2022/12/17 21:30:22;;;;;;;;;;;21.70;80.00;;;;;;5095227;28;20339;-51
2022/12/17 21:32:47;;;;;;;;;;;21.70;80.10;;;;;;5093493;28;19920;-52
2022/12/17 21:35:14;;;;;;;;;;;21.70;80.10;;;;;;5077077;28;19908;-50
2022/12/17 21:37:40;;;;;;;;;;;21.70;80.00;;;;;;5094721;28;20291;-49
2022/12/17 21:40:05;;;;;;;;;;;21.80;80.00;;;;;;5094883;28;19908;-49
2022/12/17 21:45:15;;;;;;;;;;;21.80;79.90;;;;;;5092471;28;19927;-53
2022/12/17 21:47:40;;;;;;;;;;;21.80;79.70;;;;;;5075640;28;20326;-52
2022/12/17 21:50:06;;;;;;;;;;;21.80;79.70;;;;;;5095234;28;19908;-49
2022/12/17 21:52:31;;;;;;;;;;;21.80;79.70;;;;;;5094123;28;19908;-51
2022/12/17 21:54:57;;;;;;;;;;;21.90;79.60;;;;;;5094684;28;19931;-49
2022/12/17 21:57:22;;;;;;;;;;;21.90;79.60;;;;;;5076476;28;20374;-49
2022/12/17 21:59:48;;;;;;;;;;;21.90;79.60;;;;;;5076543;28;19912;-49
2022/12/17 22:02:13;;;;;;;;;;;21.90;79.60;;;;;;5094319;28;19948;-48
2022/12/17 22:04:39;;;;;;;;;;;22.00;79.50;;;;;;5092460;28;19920;-49
2022/12/17 22:07:04;;;;;;;;;;;22.00;79.50;;;;;;5095104;28;20366;-50
2022/12/17 22:09:30;;;;;;;;;;;22.10;79.50;;;;;;5094509;28;19943;-52
2022/12/17 22:14:01;;;;;;;;;;;22.10;79.40;;;;;;5094333;28;20389;-48
2022/12/17 22:14:43;;;;;;;;;;;22.10;79.20;;;;;;5091701;28;19958;-51
2022/12/17 22:17:09;;;;;;;;;;;22.20;79.30;;;;;;5090106;28;19912;-53
2022/12/17 22:19:34;;;;;;;;;;;22.20;79.30;;;;;;5091845;28;19932;-49
2022/12/17 22:21:59;;;;;;;;;;;22.30;79.00;;;;;;5094007;28;19916;-48
2022/12/17 22:24:25;;;;;;;;;;;22.30;78.80;;;;;;5092753;28;19935;-50
2022/12/17 22:26:58;;;;;;;;;;;22.30;78.80;;;;;;5094241;28;19916;-52
2022/12/17 22:34:52;;;;;;;;;;;22.50;78.70;;;;;;5091791;28;19966;-47
2022/12/17 22:37:17;;;;;;;;;;;22.50;78.50;;;;;;5075895;28;20313;-49
2022/12/17 22:39:42;;;;;;;;;;;22.50;78.70;;;;;;5093756;28;19915;-50
2022/12/17 22:44:52;;;;;;;;;;;22.40;78.60;;;;;;5092359;28;20027;-51
2022/12/17 22:47:18;;;;;;;;;;;22.40;78.70;;;;;;5093659;28;19955;-49
2022/12/17 22:49:43;;;;;;;;;;;22.30;78.70;;;;;;5093678;28;19916;-49
2022/12/17 22:52:08;;;;;;;;;;;22.30;78.70;;;;;;5075880;28;20308;-51
2022/12/17 22:54:34;;;;;;;;;;;22.30;78.70;;;;;;5092435;28;19919;-49
2022/12/17 22:56:59;;;;;;;;;;;22.30;78.60;;;;;;5094015;28;20049;-50
2022/12/17 22:59:25;;;;;;;;;;;22.20;78.70;;;;;;5094228;28;19915;-51
2022/12/17 23:01:50;;;;;;;;;;;22.20;78.90;;;;;;5075763;28;20358;-51
2022/12/17 23:04:16;;;;;;;;;;;22.20;79.00;;;;;;5074989;28;19931;-51
2022/12/17 23:06:44;;;;;;;;;;;22.20;78.90;;;;;;5092709;28;19963;-53
2022/12/17 23:09:09;;;;;;;;;;;22.20;78.90;;;;;;5093629;28;19908;-49
2022/12/17 23:11:35;;;;;;;;;;;22.20;79.00;;;;;;5093364;28;20346;-54
2022/12/17 23:14:00;;;;;;;;;;;22.20;79.00;;;;;;5093350;28;19966;-53
2022/12/17 23:16:26;;;;;;;;;;;22.30;79.00;;;;;;5092238;28;19912;-53
2022/12/17 23:18:52;;;;;;;;;;;22.30;79.00;;;;;;5093455;28;20255;-50
2022/12/17 23:21:19;;;;;;;;;;;22.30;78.80;;;;;;5093417;28;19915;-50
2022/12/17 23:23:45;;;;;;;;;;;22.30;78.80;;;;;;5093288;28;19908;-50
2022/12/17 23:26:13;;;;;;;;;;;22.30;78.70;;;;;;5092127;28;19928;-51
2022/12/17 23:28:39;;;;;;;;;;;22.40;78.80;;;;;;5093460;28;19912;-48
2022/12/17 23:31:25;;;;;;;;;;;22.50;78.70;;;;;;5093568;28;19908;-49
2022/12/17 23:33:50;;;;;;;;;;;22.50;78.40;;;;;;5092671;28;19908;-50
2022/12/17 23:36:18;;;;;;;;;;;22.60;78.40;;;;;;5092241;28;20363;-53
2022/12/17 23:38:44;;;;;;;;;;;22.70;78.40;;;;;;5093922;28;20014;-49
2022/12/17 23:41:16;;;;;;;;;;;22.70;78.20;;;;;;5095632;28;19955;-50
2022/12/17 23:43:41;;;;;;;;;;;22.80;78.10;;;;;;5095689;28;20086;-49
2022/12/17 23:46:07;;;;;;;;;;;22.80;78.00;;;;;;5097000;28;20007;-52
2022/12/17 23:48:34;;;;;;;;;;;22.80;77.70;;;;;;5096845;28;20004;-51
2022/12/17 23:51:00;;;;;;;;;;;22.80;77.70;;;;;;5097202;28;20426;-51
2022/12/17 23:53:26;;;;;;;;;;;22.80;77.60;;;;;;5078817;28;19947;-51
2022/12/17 23:55:51;;;;;;;;;;;22.90;77.60;;;;;;5077435;28;19919;-51
2022/12/17 23:58:17;;;;;;;;;;;22.90;77.60;;;;;;5097294;28;19954;-52
